Time;durP1;ratioP1;P1;durP2;ratioP2;P2;SDS_P1;SDS_P2;PMS_P1;PMS_P2;Temp;Humidity;BMP_temperature;BMP_pressure;BME280_temperature;BME280_humidity;BME280_pressure;Samples;Min_cycle;Max_cycle;Signal;HPM_P1;HPM_P2
2021/07/19 00:01:56;;;;;;;13.60;8.50;;;16.30;99.90;;;;;;5095729;28;20077;-73
2021/07/19 00:04:23;;;;;;;15.13;9.32;;;16.20;99.90;;;;;;5094307;28;20462;-73
2021/07/19 00:06:48;;;;;;;18.33;8.52;;;16.20;99.90;;;;;;5095124;28;20030;-73
2021/07/19 00:09:16;;;;;;;13.20;8.52;;;16.20;99.90;;;;;;5095395;28;20094;-73
2021/07/19 00:11:42;;;;;;;14.88;8.65;;;16.10;99.90;;;;;;5093744;28;20439;-73
2021/07/19 00:14:09;;;;;;;20.05;9.52;;;16.00;99.90;;;;;;5095561;28;20355;-73
2021/07/19 00:16:35;;;;;;;14.20;9.48;;;15.90;99.90;;;;;;5095506;28;20030;-73
2021/07/19 00:19:03;;;;;;;17.65;8.55;;;16.00;99.90;;;;;;5094869;28;20036;-73
2021/07/19 00:21:28;;;;;;;20.17;9.50;;;15.90;99.90;;;;;;5095360;28;20398;-73
2021/07/19 00:23:54;;;;;;;19.50;9.70;;;15.90;99.90;;;;;;5095343;28;20027;-73
2021/07/19 00:26:21;;;;;;;17.58;10.00;;;15.80;99.90;;;;;;5094440;28;20347;-73
2021/07/19 00:28:47;;;;;;;14.13;9.35;;;15.80;99.90;;;;;;5095315;28;20020;-73
2021/07/19 00:31:13;;;;;;;14.55;9.38;;;15.70;99.90;;;;;;5095221;28;20457;-73
2021/07/19 00:33:39;;;;;;;19.08;9.93;;;15.60;99.90;;;;;;5093880;28;20039;-73
2021/07/19 00:36:05;;;;;;;17.92;9.90;;;15.70;99.90;;;;;;5094887;28;20023;-73
2021/07/19 00:38:30;;;;;;;14.30;9.48;;;15.60;99.90;;;;;;5095094;28;20052;-73
2021/07/19 00:40:56;;;;;;;18.52;9.52;;;15.50;99.90;;;;;;5094815;28;20469;-73
2021/07/19 00:43:22;;;;;;;18.80;10.80;;;15.60;99.90;;;;;;5094923;28;20020;-73
2021/07/19 00:45:47;;;;;;;20.02;9.60;;;15.60;99.90;;;;;;5093529;28;20105;-73
2021/07/19 00:48:13;;;;;;;16.67;10.18;;;15.60;99.90;;;;;;5094642;28;20077;-73
2021/07/19 00:50:40;;;;;;;15.13;9.73;;;15.60;99.90;;;;;;5093069;28;20070;-72
2021/07/19 00:53:08;;;;;;;18.30;9.50;;;15.60;99.90;;;;;;5094287;28;20028;-73
2021/07/19 00:55:41;;;;;;;19.52;11.35;;;15.60;99.90;;;;;;5094777;28;20024;-73
2021/07/19 00:58:08;;;;;;;15.43;9.85;;;15.60;99.90;;;;;;5094561;28;20069;-73
2021/07/19 01:00:40;;;;;;;18.75;10.95;;;15.60;99.90;;;;;;5094722;28;20024;-73
2021/07/19 01:03:07;;;;;;;18.30;9.93;;;15.50;99.90;;;;;;5094617;28;20028;-74
2021/07/19 01:05:36;;;;;;;15.70;10.77;;;15.60;99.90;;;;;;5093121;28;20526;-73
2021/07/19 01:08:04;;;;;;;18.92;10.60;;;15.60;99.90;;;;;;5094874;28;20411;-73
2021/07/19 01:10:31;;;;;;;16.33;10.80;;;15.50;99.90;;;;;;5093103;28;20028;-73
2021/07/19 01:12:57;;;;;;;23.42;10.88;;;15.50;99.90;;;;;;5094509;28;20035;-72
2021/07/19 01:15:25;;;;;;;15.27;10.38;;;15.50;99.90;;;;;;5093920;28;20020;-73
2021/07/19 01:17:52;;;;;;;17.52;9.32;;;15.50;99.90;;;;;;5094188;28;20031;-73
2021/07/19 01:20:22;;;;;;;20.17;11.60;;;15.40;99.90;;;;;;5092599;28;20478;-73
2021/07/19 01:23:15;;;;;;;18.83;11.40;;;15.30;99.90;;;;;;5075627;28;20470;-73
2021/07/19 01:26:20;;;;;;;19.20;12.00;;;15.30;99.90;;;;;;5093037;28;20069;-74
2021/07/19 01:28:49;;;;;;;21.15;12.02;;;15.30;99.90;;;;;;5094205;28;20101;-74
2021/07/19 01:31:18;;;;;;;20.38;11.45;;;15.20;99.90;;;;;;5093127;28;20020;-73
2021/07/19 01:33:47;;;;;;;18.88;11.52;;;15.20;99.90;;;;;;5094212;28;20016;-73
2021/07/19 01:36:17;;;;;;;20.65;12.88;;;15.20;99.90;;;;;;5094183;28;20065;-73
2021/07/19 01:38:43;;;;;;;20.65;11.43;;;15.20;99.90;;;;;;5093740;28;20047;-73
2021/07/19 01:41:11;;;;;;;19.52;11.85;;;15.20;99.90;;;;;;5093778;28;20059;-73
2021/07/19 01:43:37;;;;;;;21.17;12.18;;;15.20;99.90;;;;;;5094097;28;20446;-73
2021/07/19 01:46:04;;;;;;;23.52;12.68;;;15.20;99.90;;;;;;5092946;28;20031;-73
2021/07/19 01:48:31;;;;;;;18.55;12.07;;;15.20;99.90;;;;;;5093515;28;20020;-73
2021/07/19 01:50:58;;;;;;;21.85;12.77;;;15.20;99.90;;;;;;5092631;28;20082;-73
2021/07/19 01:53:25;;;;;;;18.70;12.93;;;15.20;99.90;;;;;;5094023;28;20020;-73
2021/07/19 01:55:51;;;;;;;23.42;13.57;;;15.10;99.90;;;;;;5093980;28;20474;-73
2021/07/19 01:58:17;;;;;;;25.45;13.93;;;15.20;99.90;;;;;;5094009;28;20473;-73
2021/07/19 02:00:43;;;;;;;23.85;12.65;;;15.20;99.90;;;;;;5092799;28;20017;-73
2021/07/19 02:03:09;;;;;;;23.52;12.60;;;15.10;99.90;;;;;;5093870;28;20024;-73
2021/07/19 02:05:35;;;;;;;18.75;12.30;;;15.00;99.90;;;;;;5093923;28;20016;-73
2021/07/19 02:08:02;;;;;;;25.65;12.70;;;15.00;99.90;;;;;;5093896;28;20370;-73
2021/07/19 02:10:29;;;;;;;25.17;13.82;;;15.00;99.90;;;;;;5093612;28;20073;-73
2021/07/19 02:12:56;;;;;;;22.73;12.95;;;14.90;99.90;;;;;;5093859;28;20016;-73
2021/07/19 02:15:23;;;;;;;18.92;12.65;;;14.90;99.90;;;;;;5093827;28;20032;-73
2021/07/19 02:17:54;;;;;;;19.92;12.70;;;14.90;99.90;;;;;;5093799;28;20020;-73
2021/07/19 02:20:22;;;;;;;22.65;12.85;;;14.80;99.90;;;;;;5093514;28;20042;-73
2021/07/19 02:22:47;;;;;;;23.70;13.70;;;14.80;99.90;;;;;;5093705;28;20048;-73
2021/07/19 02:25:15;;;;;;;24.77;13.25;;;14.80;99.90;;;;;;5093747;28;20024;-73
2021/07/19 02:27:44;;;;;;;29.50;13.20;;;14.90;99.90;;;;;;5093190;28;20423;-73
2021/07/19 02:30:14;;;;;;;23.83;13.57;;;15.00;99.90;;;;;;5092588;28;20043;-73
2021/07/19 02:32:42;;;;;;;24.98;13.63;;;15.00;99.90;;;;;;5092200;28;20028;-73
2021/07/19 02:35:09;;;;;;;23.13;12.85;;;15.00;99.90;;;;;;5093696;28;20369;-73
2021/07/19 02:37:38;;;;;;;19.13;12.38;;;15.00;99.90;;;;;;5093626;28;20078;-73
2021/07/19 02:40:06;;;;;;;18.17;12.45;;;15.00;99.90;;;;;;5092144;28;20024;-73
2021/07/19 02:42:34;;;;;;;24.48;12.65;;;15.00;99.90;;;;;;5092898;28;20079;-73
2021/07/19 02:45:02;;;;;;;23.45;13.05;;;15.00;99.90;;;;;;5093282;28;20031;-73
2021/07/19 02:47:29;;;;;;;21.58;12.80;;;15.00;99.90;;;;;;5093557;28;20016;-73
2021/07/19 02:49:54;;;;;;;20.40;12.32;;;14.90;99.90;;;;;;5093720;28;20380;-73
2021/07/19 02:52:22;;;;;;;20.08;12.93;;;14.90;99.90;;;;;;5097187;28;20024;-73
2021/07/19 02:54:49;;;;;;;22.40;13.10;;;14.90;99.90;;;;;;5097128;28;20059;-73
2021/07/19 02:57:15;;;;;;;21.13;12.80;;;15.00;99.90;;;;;;5096828;28;20028;-73
2021/07/19 02:59:41;;;;;;;20.60;12.70;;;15.00;99.90;;;;;;5097034;28;20024;-73
2021/07/19 03:02:10;;;;;;;21.80;12.40;;;14.90;99.90;;;;;;5096951;28;20074;-73
2021/07/19 03:04:37;;;;;;;21.60;13.40;;;14.90;99.90;;;;;;5096696;28;20012;-73
2021/07/19 03:07:06;;;;;;;20.23;12.35;;;14.90;99.90;;;;;;5096345;28;20026;-73
2021/07/19 03:09:33;;;;;;;23.10;12.63;;;14.90;99.90;;;;;;5095590;28;20024;-73
2021/07/19 03:12:00;;;;;;;21.73;12.57;;;14.80;99.90;;;;;;5096820;28;20044;-73
2021/07/19 03:14:29;;;;;;;20.25;12.68;;;14.80;99.90;;;;;;5096768;28;20020;-73
2021/07/19 03:16:55;;;;;;;22.00;13.68;;;14.80;99.90;;;;;;5096420;28;20028;-73
2021/07/19 03:19:23;;;;;;;18.27;13.07;;;14.80;99.90;;;;;;5096659;28;20058;-73
2021/07/19 03:21:53;;;;;;;22.35;12.85;;;14.70;99.90;;;;;;5096563;28;20028;-73
2021/07/19 03:24:21;;;;;;;21.45;12.65;;;14.70;99.90;;;;;;5096297;28;20488;-73
2021/07/19 03:26:48;;;;;;;18.98;12.15;;;14.70;99.90;;;;;;5096530;28;20030;-73
2021/07/19 03:29:14;;;;;;;20.20;11.73;;;14.70;99.90;;;;;;5094711;28;20113;-73
2021/07/19 03:31:41;;;;;;;21.30;13.35;;;14.70;99.90;;;;;;5096407;28;20036;-73
2021/07/19 03:34:07;;;;;;;21.38;13.45;;;14.60;99.90;;;;;;5094562;28;20067;-73
2021/07/19 03:36:33;;;;;;;21.55;13.38;;;14.60;99.90;;;;;;5095171;28;20028;-73
2021/07/19 03:39:01;;;;;;;22.75;12.75;;;14.60;99.90;;;;;;5094495;28;20051;-73
2021/07/19 03:41:30;;;;;;;21.25;13.30;;;14.60;99.90;;;;;;5094467;28;20040;-73
2021/07/19 03:43:57;;;;;;;19.65;12.15;;;14.60;99.90;;;;;;5095664;28;20099;-73
2021/07/19 03:46:22;;;;;;;23.35;12.82;;;14.60;99.90;;;;;;5096144;28;20016;-73
2021/07/19 03:48:49;;;;;;;22.70;13.48;;;14.60;99.90;;;;;;5096115;28;20024;-73
2021/07/19 03:51:15;;;;;;;24.35;14.02;;;14.60;99.90;;;;;;5096029;28;20016;-73
2021/07/19 03:53:41;;;;;;;27.20;14.63;;;14.70;99.90;;;;;;5094520;28;20020;-73
2021/07/19 03:56:07;;;;;;;23.38;14.55;;;14.70;99.90;;;;;;5095988;28;20024;-73
2021/07/19 03:58:34;;;;;;;21.92;12.30;;;14.70;99.90;;;;;;5095353;28;20466;-73
2021/07/19 04:01:01;;;;;;;26.27;13.88;;;14.80;99.90;;;;;;5095872;28;20525;-73
2021/07/19 04:03:30;;;;;;;19.60;11.88;;;14.80;99.90;;;;;;5095757;28;20480;-73
2021/07/19 04:06:00;;;;;;;21.25;12.40;;;14.80;99.90;;;;;;5095487;28;20081;-73
2021/07/19 04:08:27;;;;;;;20.63;12.95;;;14.80;99.90;;;;;;5095739;28;20374;-73
2021/07/19 04:10:53;;;;;;;22.15;14.25;;;14.70;99.90;;;;;;5095690;28;20370;-73
2021/07/19 04:13:20;;;;;;;19.90;12.43;;;14.70;99.90;;;;;;5095637;28;20453;-72
2021/07/19 04:15:49;;;;;;;20.20;13.25;;;14.70;99.90;;;;;;5094441;28;20032;-73
2021/07/19 04:18:14;;;;;;;22.98;13.27;;;14.70;99.90;;;;;;5094180;28;20073;-73
2021/07/19 04:20:41;;;;;;;20.45;12.80;;;14.70;99.90;;;;;;5094013;28;20023;-73
2021/07/19 04:23:09;;;;;;;21.77;12.95;;;14.80;99.90;;;;;;5095091;28;20526;-73
2021/07/19 04:25:37;;;;;;;22.05;13.45;;;14.80;99.90;;;;;;5095443;28;20035;-73
2021/07/19 04:28:03;;;;;;;21.38;12.98;;;14.80;99.90;;;;;;5095307;28;20091;-73
2021/07/19 04:30:37;;;;;;;26.25;14.15;;;14.90;99.90;;;;;;5095313;28;20111;-73
2021/07/19 04:33:04;;;;;;;22.23;14.18;;;15.00;99.90;;;;;;5095220;28;20036;-73
2021/07/19 04:35:29;;;;;;;22.75;13.38;;;15.00;99.90;;;;;;5094935;28;20461;-73
2021/07/19 04:37:55;;;;;;;23.90;14.40;;;15.10;99.90;;;;;;5093745;28;20095;-73
2021/07/19 04:40:22;;;;;;;26.25;13.98;;;15.40;99.90;;;;;;5093287;28;20119;-73
2021/07/19 04:42:48;;;;;;;20.45;12.88;;;15.60;99.90;;;;;;5094254;28;20032;-73
2021/07/19 04:45:18;;;;;;;21.10;13.68;;;16.00;99.90;;;;;;5094435;28;20016;-73
2021/07/19 04:47:44;;;;;;;16.73;12.48;;;16.40;99.90;;;;;;5094940;28;20048;-73
2021/07/19 04:50:14;;;;;;;18.80;11.73;;;16.70;99.90;;;;;;5094909;28;20027;-73
2021/07/19 04:52:40;;;;;;;16.27;11.90;;;17.10;99.90;;;;;;5094594;28;20026;-73
2021/07/19 04:55:09;;;;;;;16.98;11.20;;;17.40;99.90;;;;;;5094543;28;20028;-73
2021/07/19 04:57:36;;;;;;;20.33;12.13;;;17.90;99.90;;;;;;5094228;28;20024;-73
2021/07/19 05:00:04;;;;;;;20.38;12.02;;;18.10;99.90;;;;;;5094474;28;20020;-73
2021/07/19 05:02:33;;;;;;;16.95;11.35;;;18.30;99.90;;;;;;5094364;28;20423;-73
2021/07/19 05:05:00;;;;;;;17.23;10.90;;;18.90;99.90;;;;;;5093530;28;20103;-73
2021/07/19 05:07:32;;;;;;;15.23;10.77;;;18.70;99.90;;;;;;5094611;28;20046;-73
2021/07/19 05:10:00;;;;;;;16.52;11.27;;;19.10;99.90;;;;;;5093435;28;20098;-73
2021/07/19 05:12:26;;;;;;;15.63;11.27;;;19.50;99.90;;;;;;5092294;28;20389;-73
2021/07/19 05:14:53;;;;;;;14.65;11.50;;;19.50;99.90;;;;;;5093346;28;20031;-73
2021/07/19 05:17:20;;;;;;;15.35;11.32;;;19.30;99.90;;;;;;5094469;28;20074;-73
2021/07/19 05:19:46;;;;;;;19.00;11.38;;;18.80;99.90;;;;;;5093258;28;20024;-72
2021/07/19 05:22:14;;;;;;;16.67;12.00;;;18.20;99.90;;;;;;5094340;28;20129;-74
2021/07/19 05:24:40;;;;;;;18.90;12.10;;;17.80;99.90;;;;;;5092516;28;20036;-74
2021/07/19 05:27:07;;;;;;;18.10;12.57;;;17.70;99.90;;;;;;5094063;28;20020;-74
2021/07/19 05:29:35;;;;;;;20.40;12.75;;;17.90;99.90;;;;;;5094268;28;20107;-74
2021/07/19 05:32:02;;;;;;;16.90;11.93;;;17.90;99.90;;;;;;5092854;28;20110;-72
2021/07/19 05:34:28;;;;;;;21.02;13.02;;;17.70;99.90;;;;;;5094229;28;20031;-73
2021/07/19 05:36:53;;;;;;;20.45;13.57;;;17.80;99.90;;;;;;5094157;28;20020;-74
2021/07/19 05:39:19;;;;;;;17.75;12.18;;;17.30;99.90;;;;;;5094132;28;20028;-73
2021/07/19 05:41:45;;;;;;;20.58;13.15;;;17.30;99.90;;;;;;5093162;28;20127;-73
2021/07/19 05:44:10;;;;;;;19.83;12.70;;;17.40;99.90;;;;;;5092921;28;20102;-73
2021/07/19 05:46:37;;;;;;;21.40;13.38;;;17.30;99.90;;;;;;5094284;28;20022;-72
2021/07/19 05:49:03;;;;;;;21.73;13.27;;;17.40;99.90;;;;;;5075524;28;20329;-73
2021/07/19 05:51:29;;;;;;;20.17;13.63;;;17.40;99.90;;;;;;5093110;28;20108;-73
2021/07/19 05:53:55;;;;;;;17.58;12.23;;;17.50;99.90;;;;;;5094032;28;20420;-73
2021/07/19 05:56:20;;;;;;;22.45;13.52;;;17.50;99.90;;;;;;5092399;28;20500;-73
2021/07/19 05:58:46;;;;;;;21.70;13.73;;;17.40;99.90;;;;;;5092480;28;20078;-73
2021/07/19 06:01:11;;;;;;;21.02;13.43;;;17.30;99.90;;;;;;5092113;28;20024;-73
2021/07/19 06:03:37;;;;;;;21.23;14.07;;;17.10;99.90;;;;;;5091430;28;20056;-73
2021/07/19 06:06:03;;;;;;;22.88;13.60;;;17.00;99.90;;;;;;5091918;28;20067;-73
2021/07/19 06:08:28;;;;;;;24.77;13.65;;;17.00;99.90;;;;;;5093696;28;20373;-73
2021/07/19 06:10:54;;;;;;;21.80;13.77;;;16.90;99.90;;;;;;5093662;28;20024;-73
2021/07/19 06:13:19;;;;;;;24.52;13.82;;;16.80;99.90;;;;;;5091768;28;20078;-73
2021/07/19 06:15:45;;;;;;;20.33;13.82;;;16.80;99.90;;;;;;5093432;28;20137;-73
2021/07/19 06:18:11;;;;;;;23.27;14.07;;;16.70;99.90;;;;;;5092911;28;20477;-72
2021/07/19 06:20:37;;;;;;;26.20;14.60;;;16.70;99.90;;;;;;5092553;28;20025;-73
2021/07/19 06:23:03;;;;;;;24.35;14.45;;;16.80;99.90;;;;;;5080731;28;20036;-73
2021/07/19 06:25:32;;;;;;;24.70;14.30;;;16.80;99.90;;;;;;5075908;28;20082;-73
2021/07/19 06:27:59;;;;;;;21.00;13.38;;;16.80;99.90;;;;;;5090894;28;20016;-73
2021/07/19 06:30:25;;;;;;;17.95;13.43;;;16.90;99.90;;;;;;5077302;28;20028;-66
2021/07/19 06:32:50;;;;;;;20.60;14.48;;;17.00;99.90;;;;;;5095525;28;20032;-66
2021/07/19 06:35:16;;;;;;;20.77;13.73;;;17.10;99.90;;;;;;5097214;28;20032;-66
2021/07/19 06:37:41;;;;;;;21.65;14.40;;;17.20;99.90;;;;;;5095993;28;20081;-66
2021/07/19 06:40:08;;;;;;;24.77;15.05;;;17.20;99.90;;;;;;5097274;28;20361;-63
2021/07/19 06:42:34;;;;;;;22.70;14.25;;;17.20;99.90;;;;;;5093331;28;20059;-63
2021/07/19 06:44:59;;;;;;;19.83;13.35;;;17.50;99.90;;;;;;5095763;28;20066;-62
2021/07/19 06:47:26;;;;;;;19.50;12.23;;;17.80;99.90;;;;;;5089936;28;20481;-63
2021/07/19 06:49:54;;;;;;;21.45;12.18;;;17.90;99.90;;;;;;5099608;28;20431;-63
2021/07/19 06:52:21;;;;;;;21.75;12.55;;;18.00;99.90;;;;;;5073252;28;20024;-62
2021/07/19 06:54:47;;;;;;;20.77;12.25;;;18.00;99.90;;;;;;5095123;28;20438;-61
2021/07/19 06:57:13;;;;;;;20.13;12.27;;;18.10;99.90;;;;;;5094736;28;20043;-62
2021/07/19 06:59:38;;;;;;;18.27;11.50;;;18.00;99.90;;;;;;5092339;28;20020;-63
2021/07/19 07:02:04;;;;;;;19.70;11.98;;;18.10;99.90;;;;;;5095102;28;20039;-62
2021/07/19 07:04:30;;;;;;;18.58;11.20;;;17.90;99.90;;;;;;5093454;28;20089;-64
2021/07/19 07:06:56;;;;;;;19.23;11.45;;;17.90;99.90;;;;;;5094815;28;20414;-65
2021/07/19 07:09:22;;;;;;;17.42;11.32;;;18.10;99.90;;;;;;5086049;28;20028;-64
2021/07/19 07:11:48;;;;;;;17.67;11.30;;;17.90;99.90;;;;;;5095352;28;20367;-64
2021/07/19 07:14:13;;;;;;;18.15;11.60;;;18.10;99.90;;;;;;5093026;28;20055;-64
2021/07/19 07:16:39;;;;;;;18.17;12.23;;;18.00;99.90;;;;;;5104218;28;20070;-65
2021/07/19 07:19:04;;;;;;;22.88;10.27;;;18.00;99.90;;;;;;5068981;28;20052;-65
2021/07/19 07:21:31;;;;;;;20.90;10.98;;;18.00;99.90;;;;;;5071024;28;20035;-64
2021/07/19 07:23:57;;;;;;;18.38;10.73;;;17.80;99.90;;;;;;5092286;28;20028;-65
2021/07/19 07:26:24;;;;;;;22.35;10.55;;;17.90;99.90;;;;;;5097265;28;20012;-63
2021/07/19 07:28:49;;;;;;;20.38;10.38;;;17.80;99.90;;;;;;5093209;28;20024;-64
2021/07/19 07:31:15;;;;;;;18.90;10.25;;;18.00;99.90;;;;;;5093358;28;20016;-64
2021/07/19 07:33:41;;;;;;;19.15;10.00;;;18.20;99.90;;;;;;5094929;28;20038;-64
2021/07/19 07:36:07;;;;;;;19.60;10.82;;;18.20;99.90;;;;;;5091702;28;20101;-64
2021/07/19 07:38:33;;;;;;;19.88;10.50;;;18.30;99.90;;;;;;5094999;28;20460;-64
2021/07/19 07:40:59;;;;;;;16.23;9.82;;;18.20;99.90;;;;;;5093864;28;20077;-64
2021/07/19 07:43:26;;;;;;;16.42;9.70;;;18.30;99.90;;;;;;5074736;28;20033;-65
2021/07/19 07:45:52;;;;;;;18.50;9.85;;;18.20;99.90;;;;;;5092582;28;20486;-65
2021/07/19 07:48:19;;;;;;;18.50;9.02;;;18.60;99.90;;;;;;5068699;28;20020;-65
2021/07/19 07:50:45;;;;;;;18.60;9.50;;;19.00;99.90;;;;;;5050462;28;20107;-66
2021/07/19 07:53:11;;;;;;;17.17;8.75;;;19.20;99.90;;;;;;5090329;28;20024;-67
2021/07/19 07:55:37;;;;;;;16.73;9.70;;;19.20;99.90;;;;;;5091724;28;20025;-64
2021/07/19 07:58:06;;;;;;;16.98;10.20;;;19.30;99.90;;;;;;5088726;28;20031;-65
2021/07/19 08:00:32;;;;;;;16.20;9.15;;;19.20;99.90;;;;;;5083863;28;20129;-65
2021/07/19 08:02:57;;;;;;;14.88;9.60;;;19.30;99.90;;;;;;5091306;28;20120;-65
2021/07/19 08:05:23;;;;;;;20.05;9.82;;;19.60;99.90;;;;;;5084091;28;20198;-65
2021/07/19 08:07:48;;;;;;;22.95;10.48;;;19.70;99.90;;;;;;5092786;28;20020;-65
2021/07/19 08:10:15;;;;;;;15.45;9.10;;;20.20;99.90;;;;;;5093759;28;20031;-65
2021/07/19 08:12:46;;;;;;;19.92;9.25;;;20.30;99.90;;;;;;5092601;28;20024;-66
2021/07/19 08:15:14;;;;;;;19.13;9.48;;;20.10;99.90;;;;;;5091609;28;20057;-65
2021/07/19 08:17:40;;;;;;;16.02;9.70;;;20.20;99.90;;;;;;5088485;28;20024;-65
2021/07/19 08:20:08;;;;;;;17.88;9.05;;;20.20;99.90;;;;;;5093366;28;20095;-65
2021/07/19 08:22:33;;;;;;;19.73;9.77;;;20.00;99.90;;;;;;5089518;28;20047;-65
2021/07/19 08:24:59;;;;;;;17.58;10.07;;;19.60;99.90;;;;;;5066635;28;20086;-65
2021/07/19 08:27:25;;;;;;;16.45;9.85;;;19.60;99.90;;;;;;5073977;28;20031;-65
2021/07/19 08:29:53;;;;;;;18.20;10.43;;;19.70;99.90;;;;;;5084230;28;20020;-65
2021/07/19 08:32:19;;;;;;;20.23;9.77;;;19.60;99.90;;;;;;5087774;28;20024;-65
2021/07/19 08:34:45;;;;;;;18.63;10.60;;;19.60;99.90;;;;;;5086335;28;20115;-65
2021/07/19 08:37:13;;;;;;;14.63;9.93;;;19.60;99.90;;;;;;5089627;28;20521;-65
2021/07/19 08:39:41;;;;;;;15.57;9.50;;;19.80;99.90;;;;;;5088840;28;20130;-65
2021/07/19 08:42:10;;;;;;;16.65;9.85;;;19.70;99.90;;;;;;5088928;28;20047;-66
2021/07/19 08:44:36;;;;;;;16.05;9.85;;;19.60;99.90;;;;;;5088134;28;20054;-65
2021/07/19 08:47:05;;;;;;;19.42;10.32;;;19.40;99.90;;;;;;5088472;28;20048;-65
2021/07/19 08:49:32;;;;;;;14.98;9.77;;;19.50;99.90;;;;;;5090543;28;20103;-65
2021/07/19 08:51:59;;;;;;;17.48;11.07;;;19.50;99.90;;;;;;5091570;28;20469;-64
2021/07/19 08:54:27;;;;;;;20.23;11.25;;;19.40;99.90;;;;;;5093208;28;20028;-65
2021/07/19 08:56:55;;;;;;;21.00;12.07;;;19.20;99.90;;;;;;5090490;28;20031;-64
2021/07/19 08:59:21;;;;;;;20.60;11.65;;;19.50;99.90;;;;;;5086763;28;20024;-65
2021/07/19 09:01:47;;;;;;;15.93;10.25;;;20.10;99.90;;;;;;5090472;28;20081;-65
2021/07/19 09:04:18;;;;;;;21.02;11.73;;;20.30;99.90;;;;;;5090764;28;20024;-65
2021/07/19 09:06:45;;;;;;;17.35;10.30;;;20.90;99.90;;;;;;5090038;28;20027;-64
2021/07/19 09:09:11;;;;;;;19.75;11.90;;;21.00;99.90;;;;;;5089611;28;20069;-65
2021/07/19 09:11:48;;;;;;;20.15;11.77;;;20.80;99.90;;;;;;5091998;28;20428;-65
2021/07/19 09:14:13;;;;;;;19.65;10.85;;;20.80;99.90;;;;;;5092423;28;20073;-65
2021/07/19 09:16:48;;;;;;;18.25;11.18;;;20.90;99.90;;;;;;5092068;28;20377;-65
2021/07/19 09:19:16;;;;;;;17.05;10.70;;;21.10;99.90;;;;;;5091201;28;20071;-66
2021/07/19 09:21:43;;;;;;;17.05;11.25;;;22.00;99.90;;;;;;5090412;28;20500;-66
2021/07/19 09:24:15;;;;;;;21.90;12.18;;;22.30;99.90;;;;;;5090514;28;20020;-65
2021/07/19 09:26:42;;;;;;;14.05;10.07;;;22.50;99.90;;;;;;5091593;28;20420;-65
2021/07/19 09:29:11;;;;;;;16.90;11.23;;;22.50;99.90;;;;;;5089428;28;20093;-65
2021/07/19 09:31:41;;;;;;;15.68;10.27;;;22.20;99.90;;;;;;5090964;28;20032;-65
2021/07/19 09:34:17;;;;;;;15.70;10.35;;;21.60;99.90;;;;;;5084610;28;20024;-65
2021/07/19 09:39:56;;;;;;;17.00;10.02;;;21.20;99.90;;;;;;5119206;27;20408;-63
2021/07/19 09:42:24;;;;;;;15.20;10.00;;;21.50;99.90;;;;;;5119580;27;20404;-64
2021/07/19 09:44:53;;;;;;;16.30;10.13;;;21.90;99.90;;;;;;5117390;28;20028;-63
2021/07/19 09:47:19;;;;;;;14.20;10.00;;;21.90;99.90;;;;;;5100147;28;20042;-64
2021/07/19 09:49:45;;;;;;;15.63;9.13;;;22.00;99.90;;;;;;5126914;28;20406;-63
2021/07/19 09:52:13;;;;;;;16.48;9.88;;;22.40;99.90;;;;;;5080814;28;20114;-63
2021/07/19 09:54:42;;;;;;;16.45;9.75;;;22.30;99.90;;;;;;5111456;28;20077;-63
2021/07/19 09:57:08;;;;;;;15.85;9.70;;;22.20;99.90;;;;;;5121584;28;20085;-63
2021/07/19 09:59:37;;;;;;;15.30;9.48;;;22.40;99.90;;;;;;5120594;28;20023;-63
2021/07/19 10:02:03;;;;;;;14.77;9.60;;;22.40;99.90;;;;;;5116858;28;20020;-63
2021/07/19 10:04:28;;;;;;;16.13;9.52;;;22.30;99.90;;;;;;5117604;28;20030;-63
2021/07/19 10:06:56;;;;;;;16.60;9.90;;;21.90;99.90;;;;;;5117195;28;20038;-63
2021/07/19 10:09:22;;;;;;;15.07;10.10;;;21.60;99.90;;;;;;5125324;28;20049;-63
2021/07/19 10:11:49;;;;;;;16.48;9.93;;;21.70;99.90;;;;;;5110768;28;20028;-63
2021/07/19 10:14:24;;;;;;;16.35;9.77;;;22.00;99.90;;;;;;5114748;28;20070;-63
2021/07/19 10:16:51;;;;;;;14.52;10.02;;;22.80;99.90;;;;;;5118946;27;20060;-63
2021/07/19 10:19:17;;;;;;;16.73;10.45;;;22.70;99.90;;;;;;5115999;28;20364;-63
2021/07/19 10:21:43;;;;;;;16.48;10.88;;;22.80;99.90;;;;;;5118722;28;20053;-63
2021/07/19 10:24:09;;;;;;;14.88;10.35;;;22.60;99.90;;;;;;5118404;28;20020;-63
2021/07/19 10:26:36;;;;;;;15.02;10.60;;;22.40;99.90;;;;;;5108029;28;20492;-63
2021/07/19 10:29:04;;;;;;;19.17;10.57;;;22.30;99.90;;;;;;5116030;28;20024;-63
2021/07/19 10:31:30;;;;;;;13.10;10.18;;;22.20;99.90;;;;;;5110685;28;20500;-63
2021/07/19 10:33:58;;;;;;;14.88;9.45;;;22.00;99.90;;;;;;5120849;28;20031;-63
2021/07/19 10:36:31;;;;;;;14.70;9.75;;;22.20;99.90;;;;;;5121032;28;20024;-63
2021/07/19 10:39:20;;;;;;;16.77;10.35;;;22.60;99.90;;;;;;5120279;28;20039;-62
2021/07/19 10:41:56;;;;;;;14.88;10.85;;;22.20;99.90;;;;;;5107754;28;20110;-62
2021/07/19 10:44:28;;;;;;;14.60;10.45;;;21.90;99.90;;;;;;5115903;28;20465;-63
2021/07/19 10:46:57;;;;;;;16.67;10.70;;;22.00;99.90;;;;;;5116795;27;20058;-63
2021/07/19 10:49:29;;;;;;;16.35;11.00;;;22.20;99.90;;;;;;5109244;28;20028;-64
2021/07/19 10:51:54;;;;;;;14.93;10.25;;;22.30;99.90;;;;;;5085172;28;20047;-63
2021/07/19 10:54:24;;;;;;;15.15;10.68;;;22.60;99.90;;;;;;5096909;28;20032;-64
2021/07/19 10:56:53;;;;;;;14.93;9.95;;;22.30;99.90;;;;;;5109952;28;20048;-64
2021/07/19 10:59:38;;;;;;;14.20;9.95;;;22.10;99.90;;;;;;5108068;28;20031;-66
2021/07/19 11:02:04;;;;;;;12.80;9.45;;;21.90;99.90;;;;;;5108559;28;20491;-66
2021/07/19 11:04:30;;;;;;;14.85;10.15;;;22.10;99.90;;;;;;5090806;28;20029;-66
2021/07/19 11:06:57;;;;;;;16.05;10.45;;;22.30;99.90;;;;;;5095708;28;20028;-65
2021/07/19 11:09:39;;;;;;;15.82;10.32;;;22.40;99.90;;;;;;5109210;28;20111;-65
2021/07/19 11:12:07;;;;;;;19.02;10.80;;;22.50;99.90;;;;;;5091045;28;20042;-65
2021/07/19 11:14:42;;;;;;;17.70;11.13;;;22.50;99.90;;;;;;5096372;28;20035;-65
2021/07/19 11:17:09;;;;;;;13.82;9.43;;;22.60;99.90;;;;;;5102455;28;20028;-66
2021/07/19 11:19:36;;;;;;;16.23;10.50;;;23.10;99.90;;;;;;5111039;28;20115;-65
2021/07/19 11:22:22;;;;;;;15.98;10.35;;;23.40;99.90;;;;;;5113217;28;20518;-66
2021/07/19 11:24:51;;;;;;;15.82;10.18;;;23.60;99.90;;;;;;5095130;28;20055;-66
2021/07/19 11:27:31;;;;;;;15.95;10.55;;;23.30;99.90;;;;;;5089060;28;20027;-65
2021/07/19 11:29:59;;;;;;;17.92;11.30;;;22.70;99.90;;;;;;5076203;28;20139;-66
2021/07/19 11:32:30;;;;;;;16.77;10.52;;;23.40;99.90;;;;;;5078538;28;20040;-65
2021/07/19 11:35:17;;;;;;;16.45;10.57;;;23.70;99.90;;;;;;5091129;28;20021;-66
2021/07/19 11:37:45;;;;;;;14.52;9.80;;;23.90;99.90;;;;;;5086526;28;20093;-66
2021/07/19 11:40:14;;;;;;;15.82;10.35;;;24.30;99.90;;;;;;5101628;28;20036;-66
2021/07/19 11:42:44;;;;;;;14.85;10.57;;;24.60;99.90;;;;;;5080065;28;20085;-66
2021/07/19 11:45:16;;;;;;;14.70;10.05;;;23.80;99.90;;;;;;5090888;28;20031;-66
2021/07/19 11:47:49;;;;;;;16.10;11.43;;;24.20;99.90;;;;;;5105684;28;20607;-66
2021/07/19 11:50:18;;;;;;;12.82;9.90;;;24.60;99.90;;;;;;5097287;27;20039;-66
2021/07/19 11:52:44;;;;;;;15.10;10.38;;;24.20;99.90;;;;;;5079789;28;20060;-65
2021/07/19 11:55:13;;;;;;;15.98;10.77;;;24.00;99.90;;;;;;5100582;28;20031;-65
2021/07/19 11:57:48;;;;;;;16.27;10.52;;;23.10;99.90;;;;;;5098041;28;20166;-66
2021/07/19 12:00:34;;;;;;;22.65;12.05;;;22.90;99.90;;;;;;5092246;28;20024;-65
2021/07/19 12:03:03;;;;;;;16.33;11.15;;;22.60;99.90;;;;;;5092643;28;20050;-66
2021/07/19 12:05:29;;;;;;;17.67;11.10;;;22.90;99.90;;;;;;5100960;28;20092;-66
2021/07/19 12:08:00;;;;;;;17.20;11.13;;;22.70;99.90;;;;;;5108545;28;20028;-65
2021/07/19 12:10:26;;;;;;;17.00;10.70;;;23.40;99.90;;;;;;5099882;28;20473;-66
2021/07/19 12:12:52;;;;;;;17.02;11.05;;;24.10;99.90;;;;;;5100925;28;20408;-65
2021/07/19 12:15:17;;;;;;;18.65;10.85;;;23.90;99.90;;;;;;5090590;28;20049;-66
2021/07/19 12:17:43;;;;;;;19.63;11.10;;;22.80;99.90;;;;;;5100805;28;20300;-67
2021/07/19 12:20:11;;;;;;;18.65;12.02;;;22.30;99.90;;;;;;5098252;28;20039;-67
2021/07/19 12:22:37;;;;;;;16.75;11.45;;;22.60;99.90;;;;;;5093004;28;20425;-65
2021/07/19 12:25:04;;;;;;;15.18;10.63;;;22.30;99.90;;;;;;5097779;28;20024;-66
2021/07/19 12:27:30;;;;;;;15.48;10.95;;;22.20;99.90;;;;;;5086605;28;20027;-66
2021/07/19 12:29:56;;;;;;;14.02;10.65;;;22.10;99.90;;;;;;5076860;28;20322;-66
2021/07/19 12:32:21;;;;;;;15.73;10.80;;;22.30;99.90;;;;;;5101541;28;20024;-66
2021/07/19 12:34:54;;;;;;;18.55;11.57;;;22.20;99.90;;;;;;5082614;28;20028;-66